Time;durP1;ratioP1;P1;durP2;ratioP2;P2;SDS_P1;SDS_P2;PMS_P1;PMS_P2;Temp;Humidity;BMP_temperature;BMP_pressure;BME280_temperature;BME280_humidity;BME280_pressure;Samples;Min_cycle;Max_cycle;Signal;HPM_P1;HPM_P2
2022/05/25 00:01:30;;;;;;;;;;;;;;;;;;5040597;28;1458;-78
2022/05/25 00:03:55;;;;;;;;;;;;;;;;;;5043939;28;1922;-77
2022/05/25 00:06:21;;;;;;;;;;;;;;;;;;5060744;28;1251;-77
2022/05/25 00:08:46;;;;;;;;;;;;;;;;;;5043033;28;1137;-79
2022/05/25 00:11:21;;;;;;;;;;;;;;;;;;5061131;28;1162;-78
2022/05/25 00:13:46;;;;;;;;;;;;;;;;;;5044928;28;1120;-78
2022/05/25 00:16:12;;;;;;;;;;;;;;;;;;5045128;28;1149;-78
2022/05/25 00:18:37;;;;;;;;;;;;;;;;;;5045655;28;1105;-78
2022/05/25 00:21:06;;;;;;;;;;;;;;;;;;5044635;28;1519;-78
2022/05/25 00:23:40;;;;;;;;;;;;;;;;;;5038360;28;1911;-78
2022/05/25 00:26:14;;;;;;;;;;;;;;;;;;5049609;28;1499;-78
2022/05/25 00:28:40;;;;;;;;;;;;;;;;;;5039936;28;1343;-79
2022/05/25 00:31:08;;;;;;;;;;;;;;;;;;5046149;28;1697;-78
2022/05/25 00:33:34;;;;;;;;;;;;;;;;;;5046872;28;1081;-78
2022/05/25 00:35:59;;;;;;;;;;;;;;;;;;5067363;28;1161;-78
2022/05/25 00:38:24;;;;;;;;;;;;;;;;;;5048305;28;1303;-79
2022/05/25 00:40:49;;;;;;;;;;;;;;;;;;5043592;28;1235;-77
2022/05/25 00:43:15;;;;;;;;;;;;;;;;;;5065108;28;1882;-79
2022/05/25 00:45:42;;;;;;;;;;;;;;;;;;5064459;28;1201;-78
2022/05/25 00:48:09;;;;;;;;;;;;;;;;;;5050097;28;1196;-78
2022/05/25 00:53:19;;;;;;;;;;;;;;;;;;5050443;28;1068;-78
2022/05/25 00:55:45;;;;;;;;;;;;;;;;;;5042699;28;1125;-79
2022/05/25 00:58:10;;;;;;;;;;;;;;;;;;5049330;28;1189;-78
2022/05/25 01:00:36;;;;;;;;;;;;;;;;;;5048988;28;1474;-78
2022/05/25 01:03:06;;;;;;;;;;;;;;;;;;5050016;28;1882;-78
2022/05/25 01:05:42;;;;;;;;;;;;;;;;;;5050101;28;1332;-78
2022/05/25 01:08:28;;;;;;;;;;;;;;;;;;5069894;28;1105;-79
2022/05/25 01:11:12;;;;;;;;;;;;;;;;;;5064697;28;1149;-78
2022/05/25 01:13:56;;;;;;;;;;;;;;;;;;5051313;28;1216;-79
2022/05/25 01:16:35;;;;;;;;;;;;;;;;;;5048139;28;1149;-78
2022/05/25 01:19:06;;;;;;;;;;;;;;;;;;5049157;28;1209;-78
2022/05/25 01:21:37;;;;;;;;;;;;;;;;;;5057977;28;1129;-79
2022/05/25 01:24:12;;;;;;;;;;;;;;;;;;5054750;28;1906;-79
2022/05/25 01:26:56;;;;;;;;;;;;;;;;;;5056021;28;1516;-78
2022/05/25 01:29:22;;;;;;;;;;;;;;;;;;5057207;28;1196;-78
2022/05/25 01:31:59;;;;;;;;;;;;;;;;;;5061699;28;1364;-79
2022/05/25 01:34:30;;;;;;;;;;;;;;;;;;5040432;28;1151;-78
2022/05/25 01:37:15;;;;;;;;;;;;;;;;;;5055735;28;1105;-78
2022/05/25 01:39:55;;;;;;;;;;;;;;;;;;5067172;28;1239;-79
2022/05/25 01:42:24;;;;;;;;;;;;;;;;;;5037665;28;1953;-78
2022/05/25 01:44:53;;;;;;;;;;;;;;;;;;5051196;28;1294;-79
2022/05/25 01:47:19;;;;;;;;;;;;;;;;;;5051725;28;1149;-78
2022/05/25 01:49:52;;;;;;;;;;;;;;;;;;5064186;28;1125;-78
2022/05/25 01:52:20;;;;;;;;;;;;;;;;;;5044408;28;1231;-78
2022/05/25 01:55:22;;;;;;;;;;;;;;;;;;5060008;28;1169;-78
2022/05/25 01:57:50;;;;;;;;;;;;;;;;;;5058224;28;1149;-78
2022/05/25 02:00:32;;;;;;;;;;;;;;;;;;5065020;28;1168;-78
2022/05/25 02:05:48;;;;;;;;;;;;;;;;;;5054335;28;1102;-79
2022/05/25 02:08:30;;;;;;;;;;;;;;;;;;5073826;28;1124;-77
2022/05/25 02:11:14;;;;;;;;;;;;;;;;;;5059188;28;1231;-78
2022/05/25 02:13:40;;;;;;;;;;;;;;;;;;5071794;28;1251;-78
2022/05/25 02:16:05;;;;;;;;;;;;;;;;;;5082580;28;1270;-78
2022/05/25 02:18:36;;;;;;;;;;;;;;;;;;5085690;28;1149;-78
2022/05/25 02:21:35;;;;;;;;;;;;;;;;;;5082015;28;1299;-78
2022/05/25 02:24:15;;;;;;;;;;;;;;;;;;5064941;28;1910;-78
2022/05/25 02:26:55;;;;;;;;;;;;;;;;;;5052916;28;1398;-78
2022/05/25 02:29:46;;;;;;;;;;;;;;;;;;5086610;28;1136;-78
2022/05/25 02:32:16;;;;;;;;;;;;;;;;;;5070888;28;1437;-78
2022/05/25 02:34:53;;;;;;;;;;;;;;;;;;5047291;28;1320;-78
2022/05/25 02:37:21;;;;;;;;;;;;;;;;;;5053682;28;1421;-78
2022/05/25 02:39:59;;;;;;;;;;;;;;;;;;5054858;28;1419;-77
2022/05/25 02:42:24;;;;;;;;;;;;;;;;;;5054069;28;1890;-77
2022/05/25 02:44:50;;;;;;;;;;;;;;;;;;5051548;28;1340;-79
2022/05/25 02:47:25;;;;;;;;;;;;;;;;;;5072654;28;1215;-76
2022/05/25 02:49:50;;;;;;;;;;;;;;;;;;5051912;28;1298;-77
2022/05/25 02:52:15;;;;;;;;;;;;;;;;;;5068158;28;1177;-78
2022/05/25 02:54:41;;;;;;;;;;;;;;;;;;5056601;28;1388;-77
2022/05/25 02:57:07;;;;;;;;;;;;;;;;;;5072599;28;1100;-79
2022/05/25 02:59:32;;;;;;;;;;;;;;;;;;5054165;28;1429;-79
2022/05/25 03:01:58;;;;;;;;;;;;;;;;;;5047586;28;1198;-79
2022/05/25 03:04:23;;;;;;;;;;;;;;;;;;5059469;28;1955;-79
2022/05/25 03:06:49;;;;;;;;;;;;;;;;;;5085710;28;1265;-78
2022/05/25 03:09:14;;;;;;;;;;;;;;;;;;5088555;28;1220;-76
2022/05/25 03:11:41;;;;;;;;;;;;;;;;;;5059173;28;1092;-77
2022/05/25 03:14:06;;;;;;;;;;;;;;;;;;5053262;28;1378;-77
2022/05/25 03:16:32;;;;;;;;;;;;;;;;;;5067119;28;1204;-76
2022/05/25 03:18:58;;;;;;;;;;;;;;;;;;5075575;28;1242;-78
2022/05/25 03:21:25;;;;;;;;;;;;;;;;;;5081694;28;1549;-77
2022/05/25 03:23:50;;;;;;;;;;;;;;;;;;5048608;28;1909;-77
2022/05/25 03:26:16;;;;;;;;;;;;;;;;;;5044509;28;1215;-78
2022/05/25 03:28:41;;;;;;;;;;;;;;;;;;5066831;28;1151;-77
2022/05/25 03:31:06;;;;;;;;;;;;;;;;;;5043988;28;1188;-77
2022/05/25 03:33:32;;;;;;;;;;;;;;;;;;5062729;28;1074;-78
2022/05/25 03:35:57;;;;;;;;;;;;;;;;;;5062013;28;1366;-78
2022/05/25 03:38:26;;;;;;;;;;;;;;;;;;5078506;28;1092;-77
2022/05/25 03:40:52;;;;;;;;;;;;;;;;;;5060101;28;1259;-78
2022/05/25 03:43:18;;;;;;;;;;;;;;;;;;5075345;28;1918;-77
2022/05/25 03:45:44;;;;;;;;;;;;;;;;;;5063027;28;1266;-77
2022/05/25 03:48:10;;;;;;;;;;;;;;;;;;5078110;28;1221;-78
2022/05/25 03:50:36;;;;;;;;;;;;;;;;;;5076301;28;1033;-78
2022/05/25 03:53:01;;;;;;;;;;;;;;;;;;5061992;28;1045;-78
2022/05/25 03:55:26;;;;;;;;;;;;;;;;;;5079330;28;1133;-79
2022/05/25 03:57:52;;;;;;;;;;;;;;;;;;5067164;28;1598;-77
2022/05/25 04:00:17;;;;;;;;;;;;;;;;;;5051728;28;1220;-78
2022/05/25 04:02:44;;;;;;;;;;;;;;;;;;5047660;28;1893;-78
2022/05/25 04:05:13;;;;;;;;;;;;;;;;;;5065659;28;1105;-77
2022/05/25 04:07:40;;;;;;;;;;;;;;;;;;5066147;28;1219;-78
2022/05/25 04:10:06;;;;;;;;;;;;;;;;;;5063975;28;1298;-78
2022/05/25 04:12:32;;;;;;;;;;;;;;;;;;5082663;28;1195;-78
2022/05/25 04:14:57;;;;;;;;;;;;;;;;;;5054248;28;1401;-77
2022/05/25 04:17:22;;;;;;;;;;;;;;;;;;5090785;28;1144;-78
2022/05/25 04:19:50;;;;;;;;;;;;;;;;;;5089324;28;1101;-78
2022/05/25 04:22:15;;;;;;;;;;;;;;;;;;5053950;28;1977;-77
2022/05/25 04:24:40;;;;;;;;;;;;;;;;;;5052335;28;1184;-77
2022/05/25 04:27:06;;;;;;;;;;;;;;;;;;5029385;28;1234;-78
2022/05/25 04:29:31;;;;;;;;;;;;;;;;;;5048647;28;1315;-77
2022/05/25 04:31:56;;;;;;;;;;;;;;;;;;5087055;28;1141;-78
2022/05/25 04:34:22;;;;;;;;;;;;;;;;;;5088525;28;1172;-78
2022/05/25 04:36:47;;;;;;;;;;;;;;;;;;5067364;28;1132;-77
2022/05/25 04:39:12;;;;;;;;;;;;;;;;;;5079708;28;1266;-77
2022/05/25 04:41:37;;;;;;;;;;;;;;;;;;5061270;28;1348;-80
2022/05/25 04:44:03;;;;;;;;;;;;;;;;;;5072350;28;1894;-77
2022/05/25 04:46:29;;;;;;;;;;;;;;;;;;5084414;28;1172;-78
2022/05/25 04:48:54;;;;;;;;;;;;;;;;;;5047275;28;1094;-77
2022/05/25 04:51:19;;;;;;;;;;;;;;;;;;5068995;28;1403;-77
2022/05/25 04:53:45;;;;;;;;;;;;;;;;;;5070732;28;1145;-77
2022/05/25 04:58:54;;;;;;;;;;;;;;;;;;5086863;28;1033;-77
2022/05/25 05:01:20;;;;;;;;;;;;;;;;;;5068339;28;1705;-77
2022/05/25 05:03:45;;;;;;;;;;;;;;;;;;5069517;28;1913;-77
2022/05/25 05:06:11;;;;;;;;;;;;;;;;;;5080222;28;1374;-77
2022/05/25 05:08:37;;;;;;;;;;;;;;;;;;5064796;28;1172;-78
2022/05/25 05:11:09;;;;;;;;;;;;;;;;;;5080668;28;1156;-77
2022/05/25 05:13:35;;;;;;;;;;;;;;;;;;5068846;28;1293;-77
2022/05/25 05:16:03;;;;;;;;;;;;;;;;;;5058532;28;1145;-77
2022/05/25 05:18:29;;;;;;;;;;;;;;;;;;5068216;28;1217;-79
2022/05/25 05:20:54;;;;;;;;;;;;;;;;;;5063889;28;1195;-78
2022/05/25 05:23:19;;;;;;;;;;;;;;;;;;5072301;28;1961;-78
2022/05/25 05:25:45;;;;;;;;;;;;;;;;;;5025798;28;1251;-77
2022/05/25 05:28:13;;;;;;;;;;;;;;;;;;5068648;28;1168;-77
2022/05/25 05:30:39;;;;;;;;;;;;;;;;;;5066262;28;1157;-77
2022/05/25 05:33:05;;;;;;;;;;;;;;;;;;5076902;28;1227;-77
2022/05/25 05:35:40;;;;;;;;;;;;;;;;;;5084974;28;1228;-77
2022/05/25 05:38:06;;;;;;;;;;;;;;;;;;5064093;28;1473;-77
2022/05/25 05:40:41;;;;;;;;;;;;;;;;;;5043247;28;1199;-76
2022/05/25 05:43:07;;;;;;;;;;;;;;;;;;5061867;28;1927;-77
2022/05/25 05:45:38;;;;;;;;;;;;;;;;;;5062256;28;1145;-77
2022/05/25 05:48:07;;;;;;;;;;;;;;;;;;5068799;28;1377;-78
2022/05/25 05:50:43;;;;;;;;;;;;;;;;;;5082606;28;1176;-77
2022/05/25 05:53:09;;;;;;;;;;;;;;;;;;5071580;28;1184;-77
2022/05/25 05:55:39;;;;;;;;;;;;;;;;;;5077665;28;1176;-79
2022/05/25 05:58:04;;;;;;;;;;;;;;;;;;5069464;28;1148;-78
2022/05/25 06:00:33;;;;;;;;;;;;;;;;;;5086321;28;1156;-77
2022/05/25 06:02:59;;;;;;;;;;;;;;;;;;5052050;28;1886;-77
2022/05/25 06:05:25;;;;;;;;;;;;;;;;;;5069221;28;1341;-77
2022/05/25 06:07:50;;;;;;;;;;;;;;;;;;5085625;28;1246;-76
2022/05/25 06:10:16;;;;;;;;;;;;;;;;;;5099145;28;1152;-77
2022/05/25 06:12:41;;;;;;;;;;;;;;;;;;5066597;28;1177;-78
2022/05/25 06:20:40;;;;;;;;;;;;;;;;;;5078481;28;1037;-78
2022/05/25 06:23:05;;;;;;;;;;;;;;;;;;5047878;28;1985;-78
2022/05/25 06:25:42;;;;;;;;;;;;;;;;;;5073941;28;1157;-77
2022/05/25 06:28:08;;;;;;;;;;;;;;;;;;5052050;28;1375;-78
2022/05/25 06:30:33;;;;;;;;;;;;;;;;;;5068551;28;1180;-79
2022/05/25 06:32:58;;;;;;;;;;;;;;;;;;5066062;28;1322;-77
2022/05/25 06:35:24;;;;;;;;;;;;;;;;;;5089130;28;1188;-75
2022/05/25 06:37:49;;;;;;;;;;;;;;;;;;5087469;28;1203;-78
2022/05/25 06:40:20;;;;;;;;;;;;;;;;;;5085053;28;1156;-78
2022/05/25 06:42:45;;;;;;;;;;;;;;;;;;5052691;28;1943;-77
2022/05/25 06:45:10;;;;;;;;;;;;;;;;;;5067871;28;1211;-78
2022/05/25 06:47:37;;;;;;;;;;;;;;;;;;5069595;28;1146;-77
2022/05/25 06:50:03;;;;;;;;;;;;;;;;;;5061106;28;1248;-85
2022/05/25 06:52:28;;;;;;;;;;;;;;;;;;5069363;28;1208;-84
2022/05/25 06:54:59;;;;;;;;;;;;;;;;;;5053375;28;1223;-84
2022/05/25 06:57:25;;;;;;;;;;;;;;;;;;5084162;28;1069;-81
2022/05/25 06:59:51;;;;;;;;;;;;;;;;;;5051556;28;1219;-80
2022/05/25 07:02:16;;;;;;;;;;;;;;;;;;5068622;28;1366;-81
2022/05/25 07:04:51;;;;;;;;;;;;;;;;;;5068805;28;1912;-78
2022/05/25 07:07:17;;;;;;;;;;;;;;;;;;5067229;28;1285;-81
2022/05/25 07:09:54;;;;;;;;;;;;;;;;;;5071211;28;1255;-79
2022/05/25 07:12:20;;;;;;;;;;;;;;;;;;5043190;28;1233;-80
2022/05/25 07:14:49;;;;;;;;;;;;;;;;;;5045923;28;1319;-80
2022/05/25 07:17:15;;;;;;;;;;;;;;;;;;5050487;28;1275;-80
2022/05/25 07:19:41;;;;;;;;;;;;;;;;;;5050495;28;1215;-81
2022/05/25 07:22:11;;;;;;;;;;;;;;;;;;5047096;28;1152;-79
2022/05/25 07:24:36;;;;;;;;;;;;;;;;;;5061088;28;1973;-82
2022/05/25 07:27:02;;;;;;;;;;;;;;;;;;5074123;28;1049;-83
2022/05/25 07:29:27;;;;;;;;;;;;;;;;;;5065570;28;1177;-83
2022/05/25 07:31:56;;;;;;;;;;;;;;;;;;5062476;28;1088;-82
2022/05/25 07:34:21;;;;;;;;;;;;;;;;;;5067429;28;1216;-83
2022/05/25 07:36:51;;;;;;;;;;;;;;;;;;5081275;28;1228;-82
2022/05/25 07:39:18;;;;;;;;;;;;;;;;;;5087905;28;1286;-83
2022/05/25 07:41:45;;;;;;;;;;;;;;;;;;5079854;28;1252;-84
2022/05/25 07:44:17;;;;;;;;;;;;;;;;;;5067946;28;1890;-84
2022/05/25 07:46:43;;;;;;;;;;;;;;;;;;5086030;28;1088;-84
2022/05/25 07:49:08;;;;;;;;;;;;;;;;;;5051390;28;2123;-84
2022/05/25 07:51:33;;;;;;;;;;;;;;;;;;5050847;28;1598;-84
2022/05/25 07:54:00;;;;;;;;;;;;;;;;;;5050875;28;1240;-82
2022/05/25 07:56:27;;;;;;;;;;;;;;;;;;5043084;28;1326;-83
2022/05/25 07:58:54;;;;;;;;;;;;;;;;;;5066384;28;1220;-83
2022/05/25 08:05:43;;;;;;;;;;;;;;;;;;5059326;28;1172;-83
2022/05/25 08:06:53;;;;;;;;;;;;;;;;;;5052006;28;1268;-80
2022/05/25 08:09:18;;;;;;;;;;;;;;;;;;5071106;28;1203;-80
2022/05/25 08:11:43;;;;;;;;;;;;;;;;;;5069248;28;1140;-81
2022/05/25 08:14:09;;;;;;;;;;;;;;;;;;5063652;28;1188;-80
2022/05/25 08:16:34;;;;;;;;;;;;;;;;;;5049550;28;1220;-81
2022/05/25 08:18:59;;;;;;;;;;;;;;;;;;5065292;28;1308;-81
2022/05/25 08:21:25;;;;;;;;;;;;;;;;;;5084175;28;1212;-82
2022/05/25 08:23:53;;;;;;;;;;;;;;;;;;5034710;28;1906;-80
2022/05/25 08:26:19;;;;;;;;;;;;;;;;;;5055328;28;1192;-75
2022/05/25 08:28:44;;;;;;;;;;;;;;;;;;5047217;28;1208;-76
2022/05/25 08:31:10;;;;;;;;;;;;;;;;;;5065168;28;1140;-77
2022/05/25 08:33:35;;;;;;;;;;;;;;;;;;5054413;28;1184;-75
2022/05/25 08:36:00;;;;;;;;;;;;;;;;;;5071651;28;1149;-77
2022/05/25 08:38:26;;;;;;;;;;;;;;;;;;5064509;28;1247;-78
2022/05/25 08:40:55;;;;;;;;;;;;;;;;;;5076590;28;1207;-78
2022/05/25 08:43:24;;;;;;;;;;;;;;;;;;5085522;28;1894;-76
2022/05/25 08:46:00;;;;;;;;;;;;;;;;;;5081473;28;1124;-76
2022/05/25 08:48:26;;;;;;;;;;;;;;;;;;5067688;28;1061;-76
2022/05/25 08:50:59;;;;;;;;;;;;;;;;;;5044554;28;1152;-76
2022/05/25 08:53:25;;;;;;;;;;;;;;;;;;5046512;28;1238;-77
2022/05/25 08:55:58;;;;;;;;;;;;;;;;;;5049424;28;1304;-76
2022/05/25 08:58:26;;;;;;;;;;;;;;;;;;5089869;28;1231;-77
2022/05/25 09:01:01;;;;;;;;;;;;;;;;;;5067123;28;1192;-77
2022/05/25 09:03:29;;;;;;;;;;;;;;;;;;5070725;28;1945;-77
2022/05/25 09:05:59;;;;;;;;;;;;;;;;;;5067776;28;1400;-76
2022/05/25 09:08:24;;;;;;;;;;;;;;;;;;5088400;28;1155;-73
2022/05/25 09:10:58;;;;;;;;;;;;;;;;;;5080387;28;1223;-74
2022/05/25 09:13:26;;;;;;;;;;;;;;;;;;5069751;28;1293;-72
2022/05/25 09:18:41;;;;;;;;;;;;;;;;;;5087618;28;1177;-75
2022/05/25 09:21:07;;;;;;;;;;;;;;;;;;5052189;28;1149;-74
2022/05/25 09:23:33;;;;;;;;;;;;;;;;;;5067653;28;2188;-74
2022/05/25 09:25:58;;;;;;;;;;;;;;;;;;5056765;28;1397;-76
2022/05/25 09:28:29;;;;;;;;;;;;;;;;;;5067900;28;1208;-74
2022/05/25 09:30:58;;;;;;;;;;;;;;;;;;5063445;28;1185;-75
2022/05/25 09:33:41;;;;;;;;;;;;;;;;;;5067053;28;1149;-74
2022/05/25 09:36:21;;;;;;;;;;;;;;;;;;5041329;28;1513;-75
2022/05/25 09:41:23;;;;;;;;;;;;;;;;;;3558237;22;2476;-74
2022/05/25 09:43:52;;;;;;;;;;;;;;;;;;5066421;28;1917;-75
2022/05/25 09:46:32;;;;;;;;;;;;;;;;;;5075668;28;1181;-75
2022/05/25 09:49:03;;;;;;;;;;;;;;;;;;5085852;28;1170;-75
2022/05/25 09:51:34;;;;;;;;;;;;;;;;;;5082410;28;1284;-75
2022/05/25 09:54:12;;;;;;;;;;;;;;;;;;5085190;28;1214;-75
2022/05/25 09:56:39;;;;;;;;;;;;;;;;;;5079214;28;1236;-75
2022/05/25 09:59:08;;;;;;;;;;;;;;;;;;5086439;28;1160;-74
2022/05/25 10:01:43;;;;;;;;;;;;;;;;;;5078681;28;1345;-75
2022/05/25 10:04:10;;;;;;;;;;;;;;;;;;5084417;28;1894;-74
2022/05/25 10:06:49;;;;;;;;;;;;;;;;;;5079205;28;1156;-75
2022/05/25 10:09:25;;;;;;;;;;;;;;;;;;5081961;28;993;-75
2022/05/25 10:12:03;;;;;;;;;;;;;;;;;;5060534;28;1133;-73
2022/05/25 10:14:33;;;;;;;;;;;;;;;;;;5080490;28;1195;-72
2022/05/25 10:16:59;;;;;;;;;;;;;;;;;;5080119;28;1332;-73
2022/05/25 10:19:24;;;;;;;;;;;;;;;;;;5084588;28;1197;-75
2022/05/25 10:21:50;;;;;;;;;;;;;;;;;;5079266;28;1305;-74
2022/05/25 10:24:21;;;;;;;;;;;;;;;;;;5081040;28;2010;-76
2022/05/25 10:26:51;;;;;;;;;;;;;;;;;;5079026;28;1163;-73
2022/05/25 10:38:10;;;;;;;;;;;;;;;;;;5082852;28;1052;-73
2022/05/25 10:40:39;;;;;;;;;;;;;;;;;;5077661;28;1266;-73
2022/05/25 10:43:05;;;;;;;;;;;;;;;;;;5078968;28;1963;-74
2022/05/25 10:45:41;;;;;;;;;;;;;;;;;;5080273;28;1076;-73
2022/05/25 10:48:18;;;;;;;;;;;;;;;;;;5069695;28;1234;-74
2022/05/25 10:50:49;;;;;;;;;;;;;;;;;;5061742;28;888;-74
2022/05/25 10:53:20;;;;;;;;;;;;;;;;;;5061944;28;1167;-74
2022/05/25 10:55:51;;;;;;;;;;;;;;;;;;5058601;28;1191;-74
2022/05/25 10:58:40;;;;;;;;;;;;;;;;;;5062714;28;1174;-74
2022/05/25 11:01:08;;;;;;;;;;;;;;;;;;5032102;28;1124;-74
2022/05/25 11:03:34;;;;;;;;;;;;;;;;;;5065263;28;1959;-74
2022/05/25 11:06:17;;;;;;;;;;;;;;;;;;5057727;28;1558;-74
2022/05/25 11:08:42;;;;;;;;;;;;;;;;;;5064830;28;1195;-75
2022/05/25 11:11:13;;;;;;;;;;;;;;;;;;5046927;28;1329;-74
2022/05/25 11:13:51;;;;;;;;;;;;;;;;;;5046250;28;943;-74
2022/05/25 11:16:26;;;;;;;;;;;;;;;;;;5044251;28;793;-74
2022/05/25 11:18:52;;;;;;;;;;;;;;;;;;5078204;28;1426;-77
2022/05/25 11:21:17;;;;;;;;;;;;;;;;;;5081847;28;1126;-74
2022/05/25 11:23:58;;;;;;;;;;;;;;;;;;5081957;28;1886;-74
2022/05/25 11:26:32;;;;;;;;;;;;;;;;;;5075977;28;1305;-75
2022/05/25 11:29:09;;;;;;;;;;;;;;;;;;5086659;28;810;-74
2022/05/25 11:31:46;;;;;;;;;;;;;;;;;;5083152;28;948;-74
2022/05/25 11:34:11;;;;;;;;;;;;;;;;;;5082016;28;1278;-74
2022/05/25 11:36:49;;;;;;;;;;;;;;;;;;5081300;28;1321;-74
2022/05/25 11:39:31;;;;;;;;;;;;;;;;;;5084688;28;967;-75
2022/05/25 11:42:04;;;;;;;;;;;;;;;;;;5076932;28;1230;-74
2022/05/25 11:44:49;;;;;;;;;;;;;;;;;;5081222;28;1969;-74
2022/05/25 11:47:18;;;;;;;;;;;;;;;;;;5082315;28;773;-73
2022/05/25 11:49:53;;;;;;;;;;;;;;;;;;5079809;28;1192;-74
2022/05/25 11:52:34;;;;;;;;;;;;;;;;;;5077775;28;1230;-74
2022/05/25 11:55:22;;;;;;;;;;;;;;;;;;5057345;28;832;-73
2022/05/25 11:58:00;;;;;;;;;;;;;;;;;;5063799;28;953;-74
2022/05/25 12:00:26;;;;;;;;;;;;;;;;;;5057290;28;1294;-73
2022/05/25 12:02:51;;;;;;;;;;;;;;;;;;5061075;28;1898;-73
2022/05/25 12:05:24;;;;;;;;;;;;;;;;;;5058780;28;1266;-73
2022/05/25 12:07:55;;;;;;;;;;;;;;;;;;5061657;28;1207;-73
2022/05/25 12:10:23;;;;;;;;;;;;;;;;;;5056997;28;1121;-73
2022/05/25 12:12:49;;;;;;;;;;;;;;;;;;5062443;28;1156;-73
2022/05/25 12:15:18;;;;;;;;;;;;;;;;;;5055178;28;1255;-74
2022/05/25 12:18:02;;;;;;;;;;;;;;;;;;5062252;28;1183;-73
2022/05/25 12:20:39;;;;;;;;;;;;;;;;;;5058990;28;1168;-74
2022/05/25 12:23:12;;;;;;;;;;;;;;;;;;5078149;28;1894;-74
2022/05/25 12:25:48;;;;;;;;;;;;;;;;;;5078854;28;1033;-74
2022/05/25 12:28:14;;;;;;;;;;;;;;;;;;5077451;28;1297;-73
2022/05/25 12:30:43;;;;;;;;;;;;;;;;;;5083647;28;1314;-74
2022/05/25 12:33:11;;;;;;;;;;;;;;;;;;5085565;28;1190;-74
2022/05/25 12:35:37;;;;;;;;;;;;;;;;;;5085834;28;1482;-73
2022/05/25 12:38:08;;;;;;;;;;;;;;;;;;5086911;28;1285;-74
2022/05/25 12:40:44;;;;;;;;;;;;;;;;;;5080133;28;1261;-73
2022/05/25 12:43:28;;;;;;;;;;;;;;;;;;5084111;28;1963;-73
2022/05/25 12:48:47;;;;;;;;;;;;;;;;;;5086176;28;603;-73
2022/05/25 12:51:24;;;;;;;;;;;;;;;;;;5082305;28;1315;-73
2022/05/25 12:53:49;;;;;;;;;;;;;;;;;;5090489;28;932;-73
2022/05/25 12:56:18;;;;;;;;;;;;;;;;;;5079138;28;817;-73
2022/05/25 12:58:46;;;;;;;;;;;;;;;;;;5085287;28;1138;-73
2022/05/25 13:01:14;;;;;;;;;;;;;;;;;;5084296;28;1198;-74
2022/05/25 13:03:39;;;;;;;;;;;;;;;;;;5083689;28;1889;-72
2022/05/25 13:06:05;;;;;;;;;;;;;;;;;;5062596;28;1237;-73
2022/05/25 13:08:46;;;;;;;;;;;;;;;;;;5065567;28;1247;-74
2022/05/25 13:11:30;;;;;;;;;;;;;;;;;;5053530;28;1310;-75
2022/05/25 13:13:56;;;;;;;;;;;;;;;;;;5063868;28;1242;-75
2022/05/25 13:16:40;;;;;;;;;;;;;;;;;;5056459;28;1263;-75
2022/05/25 13:19:17;;;;;;;;;;;;;;;;;;5063672;28;1220;-74
2022/05/25 13:21:43;;;;;;;;;;;;;;;;;;5060753;28;1172;-74
2022/05/25 13:24:08;;;;;;;;;;;;;;;;;;5066734;28;1945;-73
2022/05/25 13:26:52;;;;;;;;;;;;;;;;;;5064912;28;1286;-73
2022/05/25 13:29:30;;;;;;;;;;;;;;;;;;5069726;28;1428;-74
2022/05/25 13:32:16;;;;;;;;;;;;;;;;;;5059221;28;1201;-73
2022/05/25 13:34:42;;;;;;;;;;;;;;;;;;5057674;28;1144;-74
2022/05/25 13:37:13;;;;;;;;;;;;;;;;;;5063645;28;884;-73
2022/05/25 13:39:39;;;;;;;;;;;;;;;;;;5061394;28;1231;-73
2022/05/25 13:42:16;;;;;;;;;;;;;;;;;;5059935;28;1199;-73
2022/05/25 13:44:45;;;;;;;;;;;;;;;;;;5063437;28;1981;-73
2022/05/25 13:47:16;;;;;;;;;;;;;;;;;;5061416;28;1287;-73
2022/05/25 13:49:50;;;;;;;;;;;;;;;;;;5062316;28;1192;-73
2022/05/25 13:52:24;;;;;;;;;;;;;;;;;;5061219;28;1092;-73
2022/05/25 13:55:04;;;;;;;;;;;;;;;;;;5063484;28;836;-73
2022/05/25 13:57:32;;;;;;;;;;;;;;;;;;5058297;28;861;-73
2022/05/25 14:00:22;;;;;;;;;;;;;;;;;;5062433;28;1183;-73
2022/05/25 14:02:51;;;;;;;;;;;;;;;;;;5071943;28;1972;-78
2022/05/25 14:05:22;;;;;;;;;;;;;;;;;;5062748;28;1375;-78
2022/05/25 14:07:49;;;;;;;;;;;;;;;;;;5062539;28;1190;-77
2022/05/25 14:13:10;;;;;;;;;;;;;;;;;;5065163;28;1000;-76
2022/05/25 14:15:37;;;;;;;;;;;;;;;;;;5058622;28;1239;-75
2022/05/25 14:18:04;;;;;;;;;;;;;;;;;;5074214;28;1173;-76
2022/05/25 14:20:30;;;;;;;;;;;;;;;;;;5040923;28;1206;-74
2022/05/25 14:22:55;;;;;;;;;;;;;;;;;;5054606;28;1886;-76
2022/05/25 14:25:26;;;;;;;;;;;;;;;;;;5064213;28;1226;-74
2022/05/25 14:27:52;;;;;;;;;;;;;;;;;;5057309;28;1128;-74
2022/05/25 14:30:25;;;;;;;;;;;;;;;;;;5044937;28;1310;-73
2022/05/25 14:33:10;;;;;;;;;;;;;;;;;;5046033;28;1074;-74
2022/05/25 14:35:38;;;;;;;;;;;;;;;;;;5045489;28;1282;-74
2022/05/25 14:38:05;;;;;;;;;;;;;;;;;;5060514;28;1186;-74
2022/05/25 14:40:44;;;;;;;;;;;;;;;;;;5067187;28;1124;-75
2022/05/25 14:43:10;;;;;;;;;;;;;;;;;;5062285;28;1905;-73
2022/05/25 14:45:35;;;;;;;;;;;;;;;;;;5042057;28;1431;-74
2022/05/25 14:48:00;;;;;;;;;;;;;;;;;;5042778;28;1159;-73
2022/05/25 14:50:31;;;;;;;;;;;;;;;;;;5039585;28;1175;-72
2022/05/25 14:53:01;;;;;;;;;;;;;;;;;;5043491;28;1161;-73
2022/05/25 14:55:50;;;;;;;;;;;;;;;;;;5046145;28;1274;-72
2022/05/25 14:58:27;;;;;;;;;;;;;;;;;;5053021;28;1109;-75
2022/05/25 15:00:59;;;;;;;;;;;;;;;;;;5041431;28;1084;-74
2022/05/25 15:03:28;;;;;;;;;;;;;;;;;;5052918;28;1959;-76
2022/05/25 15:06:04;;;;;;;;;;;;;;;;;;5044232;28;1304;-75
2022/05/25 15:08:32;;;;;;;;;;;;;;;;;;5045788;28;1034;-73
2022/05/25 15:11:16;;;;;;;;;;;;;;;;;;5037784;28;1144;-74
2022/05/25 15:19:11;;;;;;;;;;;;;;;;;;5083216;28;1017;-74
2022/05/25 15:21:36;;;;;;;;;;;;;;;;;;5049931;28;1340;-73
2022/05/25 15:24:04;;;;;;;;;;;;;;;;;;5060854;28;1897;-74
2022/05/25 15:26:32;;;;;;;;;;;;;;;;;;5053242;28;1334;-74
2022/05/25 15:29:13;;;;;;;;;;;;;;;;;;5064599;28;1202;-75
2022/05/25 15:31:38;;;;;;;;;;;;;;;;;;5074739;28;1237;-75
2022/05/25 15:34:05;;;;;;;;;;;;;;;;;;5082140;28;1287;-75
2022/05/25 15:36:32;;;;;;;;;;;;;;;;;;5047424;28;1307;-76
2022/05/25 15:38:58;;;;;;;;;;;;;;;;;;5063220;28;1353;-75
2022/05/25 15:41:24;;;;;;;;;;;;;;;;;;5058714;28;1381;-75
2022/05/25 15:43:52;;;;;;;;;;;;;;;;;;5060511;28;1901;-75
2022/05/25 15:46:17;;;;;;;;;;;;;;;;;;5075425;28;1200;-74
2022/05/25 15:48:47;;;;;;;;;;;;;;;;;;5078001;28;1206;-75
2022/05/25 15:51:14;;;;;;;;;;;;;;;;;;5067956;28;1440;-76
2022/05/25 15:53:40;;;;;;;;;;;;;;;;;;5050797;28;1202;-76
2022/05/25 15:56:05;;;;;;;;;;;;;;;;;;5049892;28;800;-76
2022/05/25 15:58:32;;;;;;;;;;;;;;;;;;5031638;28;1184;-76
2022/05/25 16:00:57;;;;;;;;;;;;;;;;;;5049508;28;900;-76
2022/05/25 16:03:28;;;;;;;;;;;;;;;;;;5049184;28;1894;-75
2022/05/25 16:06:01;;;;;;;;;;;;;;;;;;5055262;28;1139;-76
2022/05/25 16:11:17;;;;;;;;;;;;;;;;;;5052553;28;757;-76
2022/05/25 16:13:42;;;;;;;;;;;;;;;;;;5050236;28;1274;-76
2022/05/25 16:16:07;;;;;;;;;;;;;;;;;;5062102;28;808;-76
2022/05/25 16:18:33;;;;;;;;;;;;;;;;;;5060450;28;1269;-76
2022/05/25 16:20:59;;;;;;;;;;;;;;;;;;5039355;28;1107;-76
2022/05/25 16:23:24;;;;;;;;;;;;;;;;;;5055242;28;1898;-75
2022/05/25 16:25:50;;;;;;;;;;;;;;;;;;5035262;28;1283;-76
2022/05/25 16:28:15;;;;;;;;;;;;;;;;;;5060555;28;1322;-76
2022/05/25 16:30:41;;;;;;;;;;;;;;;;;;5062126;28;1200;-76
2022/05/25 16:33:06;;;;;;;;;;;;;;;;;;5079655;28;1175;-75
2022/05/25 16:35:32;;;;;;;;;;;;;;;;;;5051733;28;1297;-76
2022/05/25 16:37:58;;;;;;;;;;;;;;;;;;5062971;28;1214;-76
2022/05/25 16:40:23;;;;;;;;;;;;;;;;;;5071720;28;1180;-75
2022/05/25 16:42:48;;;;;;;;;;;;;;;;;;5057642;28;1910;-78
2022/05/25 16:45:14;;;;;;;;;;;;;;;;;;5051325;28;1184;-76
2022/05/25 16:47:39;;;;;;;;;;;;;;;;;;5057252;28;1156;-76
2022/05/25 16:50:06;;;;;;;;;;;;;;;;;;5070409;28;1248;-76
2022/05/25 16:52:32;;;;;;;;;;;;;;;;;;5057207;28;1192;-76
2022/05/25 16:54:57;;;;;;;;;;;;;;;;;;5049790;28;1118;-75
2022/05/25 16:57:23;;;;;;;;;;;;;;;;;;5054300;28;1353;-76
2022/05/25 16:59:49;;;;;;;;;;;;;;;;;;5062376;28;1028;-76
2022/05/25 17:02:14;;;;;;;;;;;;;;;;;;5043007;28;1212;-75
2022/05/25 17:04:39;;;;;;;;;;;;;;;;;;5057065;28;1947;-75
2022/05/25 17:07:05;;;;;;;;;;;;;;;;;;5055620;28;1223;-75
2022/05/25 17:09:34;;;;;;;;;;;;;;;;;;5053705;28;1184;-75
2022/05/25 17:12:00;;;;;;;;;;;;;;;;;;5058321;28;1230;-76
2022/05/25 17:14:26;;;;;;;;;;;;;;;;;;5050261;28;1188;-76
2022/05/25 17:16:53;;;;;;;;;;;;;;;;;;5058355;28;1374;-76
2022/05/25 17:22:02;;;;;;;;;;;;;;;;;;5068745;28;986;-76
2022/05/25 17:24:27;;;;;;;;;;;;;;;;;;5055466;28;1886;-75
2022/05/25 17:26:53;;;;;;;;;;;;;;;;;;5051588;28;1212;-76
2022/05/25 17:29:18;;;;;;;;;;;;;;;;;;5056243;28;1157;-76
2022/05/25 17:31:44;;;;;;;;;;;;;;;;;;5061126;28;1163;-77
2022/05/25 17:34:09;;;;;;;;;;;;;;;;;;5044205;28;1375;-77
2022/05/25 17:42:03;;;;;;;;;;;;;;;;;;5066589;28;1345;-77
2022/05/25 17:44:30;;;;;;;;;;;;;;;;;;5053446;28;1910;-76
2022/05/25 17:46:58;;;;;;;;;;;;;;;;;;5049045;28;1266;-76
2022/05/25 17:49:24;;;;;;;;;;;;;;;;;;5080444;28;1279;-74
2022/05/25 17:51:50;;;;;;;;;;;;;;;;;;5065393;28;1164;-75
2022/05/25 17:54:15;;;;;;;;;;;;;;;;;;5085116;28;1168;-74
2022/05/25 17:56:41;;;;;;;;;;;;;;;;;;5072515;28;1219;-74
2022/05/25 17:59:07;;;;;;;;;;;;;;;;;;5059212;28;1185;-75
2022/05/25 18:01:32;;;;;;;;;;;;;;;;;;5066945;28;1070;-75
2022/05/25 18:03:58;;;;;;;;;;;;;;;;;;5063120;28;1893;-75
2022/05/25 18:06:24;;;;;;;;;;;;;;;;;;5065050;28;1105;-75
2022/05/25 18:08:49;;;;;;;;;;;;;;;;;;5062394;28;1109;-75
2022/05/25 18:11:16;;;;;;;;;;;;;;;;;;5079201;28;1303;-75